Time;durP1;ratioP1;P1;durP2;ratioP2;P2;SDS_P1;SDS_P2;PMS_P1;PMS_P2;Temp;Humidity;BMP_temperature;BMP_pressure;BME280_temperature;BME280_humidity;BME280_pressure;Samples;Min_cycle;Max_cycle;Signal;HPM_P1;HPM_P2
2023/05/20 00:02:32;;;;;;;6.17;2.60;;;;;;;11.61;87.74;100094.84;12207676;19;20003;-82
2023/05/20 00:06:34;;;;;;;7.82;2.17;;;;;;;11.56;88.32;100101.09;12207627;19;20364;-82
2023/05/20 00:10:37;;;;;;;3.63;2.05;;;;;;;11.55;89.32;100098.59;12187151;19;20019;-82
2023/05/20 00:14:39;;;;;;;5.13;2.38;;;;;;;11.53;89.70;100098.00;12217453;19;20402;-81
2023/05/20 00:18:40;;;;;;;6.80;2.50;;;;;;;11.50;90.37;100088.31;12196787;19;20014;-80
2023/05/20 00:22:42;;;;;;;5.68;2.90;;;;;;;11.50;90.28;100090.22;12217661;19;20020;-81
2023/05/20 00:26:44;;;;;;;5.82;2.13;;;;;;;11.47;90.89;100091.56;12220477;19;20007;-81
2023/05/20 00:30:46;;;;;;;4.35;2.15;;;;;;;11.44;91.41;100094.00;12201816;19;20006;-82
2023/05/20 00:34:58;;;;;;;5.90;2.45;;;;;;;11.44;91.67;100102.28;12220578;19;20015;-82
2023/05/20 00:38:59;;;;;;;4.72;2.63;;;;;;;11.43;91.26;100090.41;12223562;19;20006;-81
2023/05/20 00:43:01;;;;;;;4.82;2.40;;;;;;;11.36;92.41;100086.94;12201265;19;20027;-83
2023/05/20 00:47:04;;;;;;;5.93;2.63;;;;;;;11.27;93.79;100085.66;12223184;19;20006;-81
2023/05/20 00:51:06;;;;;;;4.38;1.85;;;;;;;11.23;93.18;100095.53;12222646;19;20033;-80
2023/05/20 00:55:08;;;;;;;4.28;2.75;;;;;;;11.21;94.25;100087.50;12200665;19;20015;-82
2023/05/20 00:59:11;;;;;;;3.60;2.28;;;;;;;11.21;95.57;100086.66;12220894;19;20006;-80
2023/05/20 01:03:13;;;;;;;4.82;2.90;;;;;;;11.22;95.27;100083.69;12219904;19;20421;-82
2023/05/20 01:07:16;;;;;;;4.17;2.40;;;;;;;11.21;95.41;100084.72;12198232;19;20020;-81
2023/05/20 01:11:31;;;;;;;4.32;2.40;;;;;;;11.21;95.43;100081.16;12219046;19;20906;-82
2023/05/20 01:15:34;;;;;;;4.90;2.53;;;;;;;11.21;95.89;100081.16;12218704;19;20010;-82
2023/05/20 01:19:44;;;;;;;4.30;2.17;;;;;;;11.19;96.55;100067.63;12196733;19;20027;-81
2023/05/20 01:23:46;;;;;;;6.53;2.50;;;;;;;11.14;97.63;100076.63;12218020;19;20031;-84
2023/05/20 01:27:49;;;;;;;4.93;2.97;;;;;;;11.12;97.97;100072.44;12192631;19;20006;-81
2023/05/20 01:31:52;;;;;;;;;;;;;;;11.06;99.90;100063.22;12218239;19;20022;-82
2023/05/20 01:35:55;;;;;;;5.22;2.78;;;;;;;11.05;98.31;100069.00;12210978;19;19915;-80
2023/05/20 01:39:58;;;;;;;8.15;2.97;;;;;;;11.02;98.97;100062.06;12196086;19;20018;-82
2023/05/20 01:44:00;;;;;;;3.80;2.90;;;;;;;10.97;99.77;100059.19;12216886;19;20018;-80
2023/05/20 01:48:02;;;;;;;5.35;2.75;;;;;;;10.97;100.00;100047.31;12215142;19;20007;-83
2023/05/20 01:52:04;;;;;;;5.13;2.50;;;;;;;10.92;100.00;100043.41;12195541;19;20581;-80
2023/05/20 01:56:07;;;;;;;;;;;;;;;10.89;100.00;100040.31;12216307;19;20015;-82
2023/05/20 02:00:10;;;;;;;5.72;2.67;;;;;;;10.83;100.00;100039.38;12207746;19;19907;-81
2023/05/20 02:04:14;;;;;;;5.03;2.78;;;;;;;10.77;100.00;100043.13;12194500;19;20100;-83
2023/05/20 02:08:16;;;;;;;8.70;3.35;;;;;;;10.75;100.00;100045.25;12210411;19;20014;-81
2023/05/20 02:12:20;;;;;;;5.30;3.05;;;;;;;10.74;100.00;100040.84;12214869;19;20021;-82
2023/05/20 02:16:22;;;;;;;5.50;3.20;;;;;;;10.69;100.00;100030.53;12192053;19;20827;-81
2023/05/20 02:20:25;;;;;;;5.25;2.97;;;;;;;10.67;100.00;100029.09;12214158;19;20006;-80
2023/05/20 02:24:27;;;;;;;5.88;3.08;;;;;;;10.66;100.00;100030.19;12215596;19;20086;-82
2023/05/20 02:28:29;;;;;;;5.45;3.17;;;;;;;10.71;100.00;100035.81;12186160;19;20015;-82
2023/05/20 02:32:32;;;;;;;5.75;2.85;;;;;;;10.75;100.00;100031.47;12212028;19;20032;-81
2023/05/20 02:36:34;;;;;;;4.50;2.80;;;;;;;10.78;100.00;100033.75;12212906;19;20006;-81
2023/05/20 02:40:36;;;;;;;6.13;3.33;;;;;;;10.82;100.00;100034.09;12192839;19;20516;-80
2023/05/20 02:44:38;;;;;;;5.63;3.95;;;;;;;10.84;100.00;100032.75;12211182;19;20010;-79
2023/05/20 02:48:39;;;;;;;6.57;3.45;;;;;;;10.84;100.00;100027.25;12202902;19;20003;-80
2023/05/20 02:52:41;;;;;;;7.50;3.40;;;;;;;10.86;100.00;100027.84;12214262;19;20009;-81
2023/05/20 02:56:43;;;;;;;3.90;2.90;;;;;;;10.84;100.00;100024.50;12211785;19;20082;-81
2023/05/20 03:00:45;;;;;;;9.20;3.50;;;;;;;10.84;100.00;100020.91;12190688;19;20034;-82
2023/05/20 03:04:46;;;;;;;5.45;2.97;;;;;;;10.82;100.00;100010.09;12211191;19;20027;-81
2023/05/20 03:08:48;;;;;;;4.97;2.92;;;;;;;10.78;100.00;100017.22;12210031;19;20011;-80
2023/05/20 03:12:50;;;;;;;6.85;3.58;;;;;;;10.77;100.00;100014.69;12188325;19;20006;-82
2023/05/20 03:16:54;;;;;;;5.28;3.25;;;;;;;10.75;100.00;100006.69;12209919;19;20448;-81
2023/05/20 03:20:56;;;;;;;5.53;3.17;;;;;;;10.73;100.00;100008.84;12212574;19;20025;-81
2023/05/20 03:24:59;;;;;;;4.70;3.57;;;;;;;10.69;100.00;100004.91;12189300;19;20006;-82
2023/05/20 03:29:01;;;;;;;6.47;3.40;;;;;;;10.65;100.00;100009.25;12211936;19;20030;-80
2023/05/20 03:33:04;;;;;;;6.97;3.50;;;;;;;10.61;100.00;100005.28;12209678;19;20011;-83
2023/05/20 03:37:06;;;;;;;6.00;3.60;;;;;;;10.61;100.00;100010.81;12187803;19;20011;-83
2023/05/20 03:41:09;;;;;;;6.00;3.90;;;;;;;10.60;100.00;100012.72;12213300;19;20011;-81
2023/05/20 03:45:11;;;;;;;6.13;3.63;;;;;;;10.65;100.00;100007.31;12210354;19;20360;-83
2023/05/20 03:49:21;;;;;;;6.35;3.95;;;;;;;10.73;100.00;100003.31;12186965;19;20015;-80
2023/05/20 03:53:23;;;;;;;9.60;3.88;;;;;;;10.77;100.00;100007.28;12210203;19;20060;-82
2023/05/20 03:57:25;;;;;;;7.05;3.10;;;;;;;10.81;100.00;100008.44;12208412;19;20070;-82
2023/05/20 04:01:27;;;;;;;7.67;3.60;;;;;;;10.87;100.00;99999.19;12194360;19;20011;-81
2023/05/20 04:05:30;;;;;;;6.55;3.47;;;;;;;11.01;100.00;100001.66;12219181;19;20010;-81
2023/05/20 04:09:34;;;;;;;7.93;3.90;;;;;;;11.11;100.00;100008.16;12226050;19;20018;-81
2023/05/20 04:13:37;;;;;;;6.63;3.72;;;;;;;11.26;100.00;100007.59;12203553;19;20010;-82
2023/05/20 04:17:40;;;;;;;6.13;3.75;;;;;;;11.43;100.00;100002.09;12219769;19;20002;-81
2023/05/20 04:21:42;;;;;;;;;;;;;;;11.57;100.00;100003.44;12199895;19;20009;-82
2023/05/20 04:25:44;;;;;;;6.88;4.05;;;;;;;11.75;100.00;99999.56;12220123;19;19907;-81
2023/05/20 04:29:46;;;;;;;7.90;3.72;;;;;;;11.89;100.00;99989.03;12221304;19;20042;-81
2023/05/20 04:33:49;;;;;;;11.02;3.80;;;;;;;12.03;100.00;99993.09;12198172;19;20082;-81
2023/05/20 04:37:52;;;;;;;;;;;;;;;12.14;100.00;99988.56;12220759;19;20007;-82
2023/05/20 04:41:54;;;;;;;;;;;;;;;12.28;100.00;99992.63;12222759;19;19914;-81
2023/05/20 04:45:56;;;;;;;6.60;3.78;;;;;;;12.42;100.00;99992.22;12199585;19;19914;-81
2023/05/20 04:50:00;;;;;;;6.15;3.50;;;;;;;12.51;100.00;99985.13;12221766;19;20026;-81
2023/05/20 04:54:02;;;;;;;7.15;3.95;;;;;;;12.67;100.00;99981.47;12220867;19;20014;-82
2023/05/20 04:58:04;;;;;;;5.43;3.92;;;;;;;12.83;100.00;99981.63;12195903;19;20010;-80
2023/05/20 05:02:06;;;;;;;5.13;3.47;;;;;;;13.01;100.00;99970.19;12220803;19;20370;-80
2023/05/20 05:06:08;;;;;;;5.43;3.45;;;;;;;13.19;100.00;99967.03;12222665;19;20369;-81
2023/05/20 05:10:11;;;;;;;5.57;3.93;;;;;;;13.36;100.00;99966.09;12202640;19;20511;-80
2023/05/20 05:14:12;;;;;;;6.70;3.38;;;;;;;13.55;100.00;99978.44;12224961;19;20025;-81
2023/05/20 05:18:17;;;;;;;4.73;3.43;;;;;;;13.72;100.00;99966.38;12236456;19;20463;-82
2023/05/20 05:22:19;;;;;;;4.85;3.30;;;;;;;13.73;100.00;99963.31;12213346;19;20025;-80
2023/05/20 05:26:23;;;;;;;5.25;3.65;;;;;;;13.75;100.00;99971.38;12223809;19;20484;-79
2023/05/20 05:30:26;;;;;;;;;;;;;;;13.82;100.00;99969.19;12220211;19;20013;-81
2023/05/20 05:34:27;;;;;;;5.82;3.25;;;;;;;13.91;100.00;99962.88;12196005;19;19910;-82
2023/05/20 05:38:29;;;;;;;6.35;3.75;;;;;;;13.89;100.00;99967.00;12213041;19;20014;-80
2023/05/20 05:42:31;;;;;;;6.75;3.60;;;;;;;13.89;100.00;99958.69;12219145;19;20002;-82
2023/05/20 05:46:35;;;;;;;7.32;4.03;;;;;;;13.81;100.00;99956.47;12194614;19;20006;-80
2023/05/20 05:50:37;;;;;;;6.37;3.83;;;;;;;13.84;100.00;99951.22;12219686;19;20494;-79
2023/05/20 05:54:39;;;;;;;5.70;3.77;;;;;;;13.88;100.00;99952.34;12219596;19;20046;-81
2023/05/20 05:58:41;;;;;;;6.88;3.65;;;;;;;13.99;100.00;99956.00;12220020;19;20018;-80
2023/05/20 06:02:43;;;;;;;6.85;4.18;;;;;;;14.12;100.00;99963.81;12216109;19;20003;-79
2023/05/20 06:06:48;;;;;;;6.05;4.35;;;;;;;14.29;100.00;99957.25;12185256;19;20467;-81
2023/05/20 06:10:50;;;;;;;7.72;3.50;;;;;;;14.40;100.00;99949.81;12212449;19;20034;-80
2023/05/20 06:14:52;;;;;;;10.27;4.73;;;;;;;14.51;99.50;99957.03;12207060;19;20002;-79
2023/05/20 06:18:56;;;;;;;5.80;4.22;;;;;;;14.71;98.74;99946.03;12187523;19;20010;-79
2023/05/20 06:22:58;;;;;;;8.10;4.30;;;;;;;14.96;98.22;99952.75;12215056;19;20017;-80
2023/05/20 06:27:07;;;;;;;7.30;3.88;;;;;;;15.07;96.79;99948.03;12233429;19;20533;-79
2023/05/20 06:31:10;;;;;;;7.88;4.47;;;;;;;15.25;96.79;99948.31;12204994;19;20006;-81
2023/05/20 06:35:13;;;;;;;10.15;4.03;;;;;;;15.32;95.55;99949.97;12214933;19;20027;-79
2023/05/20 06:39:15;;;;;;;7.57;3.92;;;;;;;15.37;95.90;99947.22;12198868;19;20352;-81
2023/05/20 06:43:18;;;;;;;6.28;3.78;;;;;;;15.53;93.91;99946.09;12200673;19;20009;-81
2023/05/20 06:47:41;;;;;;;6.72;4.30;;;;;;;15.55;93.52;99940.25;12218572;19;20010;-82
2023/05/20 06:51:43;;;;;;;6.93;4.00;;;;;;;15.63;92.41;99934.13;12203485;19;20007;-82
2023/05/20 06:55:45;;;;;;;8.52;4.15;;;;;;;15.73;93.01;99934.13;12227878;19;20355;-81
2023/05/20 06:59:47;;;;;;;6.27;3.93;;;;;;;15.82;92.51;99932.44;12223297;19;20014;-81
2023/05/20 07:03:50;;;;;;;7.25;4.43;;;;;;;15.85;92.08;99940.22;12194539;19;20007;-80
2023/05/20 07:07:53;;;;;;;6.50;3.97;;;;;;;15.94;91.69;99934.91;12221720;19;20006;-83
2023/05/20 07:11:55;;;;;;;6.90;4.07;;;;;;;15.94;92.25;99934.91;12230585;19;20006;-81
2023/05/20 07:15:57;;;;;;;7.20;4.20;;;;;;;16.03;92.41;99935.16;12200692;19;20051;-81
2023/05/20 07:20:00;;;;;;;7.50;4.70;;;;;;;16.03;91.66;99929.63;12216939;19;20018;-81
2023/05/20 07:24:04;;;;;;;6.90;4.30;;;;;;;16.11;90.66;99924.31;12217752;19;20019;-81
2023/05/20 07:28:06;;;;;;;6.88;4.57;;;;;;;16.31;89.64;99912.28;12200927;19;20054;-82
2023/05/20 07:32:09;;;;;;;6.67;4.70;;;;;;;16.49;88.54;99912.75;12220916;19;20007;-80
2023/05/20 07:36:12;;;;;;;8.27;4.63;;;;;;;16.87;88.39;99902.78;12215804;19;20011;-81
2023/05/20 07:40:17;;;;;;;7.05;4.35;;;;;;;17.03;85.09;99911.84;12198843;19;20018;-81
2023/05/20 07:44:20;;;;;;;9.65;4.75;;;;;;;17.37;84.70;99908.22;12223835;19;20367;-81
2023/05/20 07:48:24;;;;;;;6.45;4.43;;;;;;;17.67;83.51;99921.03;12222061;19;20019;-82
2023/05/20 07:52:27;;;;;;;6.72;4.82;;;;;;;17.74;81.67;99905.63;12185502;19;20137;-82
2023/05/20 07:56:29;;;;;;;11.00;5.50;;;;;;;17.89;78.89;99909.41;12208212;19;20007;-81
2023/05/20 08:00:31;;;;;;;6.65;5.00;;;;;;;17.99;81.27;99907.34;12218110;19;20242;-81
2023/05/20 08:04:37;;;;;;;8.23;5.28;;;;;;;18.25;79.60;99904.22;12194217;19;20019;-81
2023/05/20 08:08:40;;;;;;;8.30;4.80;;;;;;;18.67;78.56;99899.72;12212914;19;20102;-81
2023/05/20 08:12:48;;;;;;;9.05;5.38;;;;;;;19.28;74.93;99886.81;12192160;19;20010;-81
2023/05/20 08:16:52;;;;;;;6.80;4.90;;;;;;;19.66;72.59;99893.13;12213980;19;20041;-84
2023/05/20 08:20:56;;;;;;;8.55;5.55;;;;;;;19.80;70.35;99884.75;12214091;19;20015;-82
2023/05/20 08:24:58;;;;;;;;;;;;;;;19.86;72.91;99897.47;12187070;19;20017;-80
2023/05/20 08:29:01;;;;;;;5.28;4.60;;;;;;;19.97;69.85;99892.53;12205654;19;19918;-78
2023/05/20 08:33:03;;;;;;;6.78;5.05;;;;;;;20.39;69.85;99896.13;12199217;19;20657;-79
2023/05/20 08:37:05;;;;;;;10.23;5.47;;;;;;;20.99;67.10;99883.84;12180320;19;20020;-78
2023/05/20 08:41:12;;;;;;;12.13;5.90;;;;;;;21.33;61.47;99889.72;12204930;19;20062;-82
2023/05/20 08:45:27;;;;;;;9.25;5.60;;;;;;;21.44;61.73;99887.47;12206699;19;20007;-81
2023/05/20 08:50:02;;;;;;;7.78;5.28;;;;;;;21.67;62.12;99895.88;12187024;19;20046;-83
2023/05/20 08:54:19;;;;;;;;;;;;;;;21.73;61.27;99891.78;12222640;19;20086;-81
2023/05/20 08:58:28;;;;;;;9.48;5.82;;;;;;;22.11;58.35;99903.31;12193310;19;19931;-80
2023/05/20 09:03:03;;;;;;;6.95;5.78;;;;;;;22.20;57.31;99890.19;12220534;19;20018;-83
2023/05/20 09:07:31;;;;;;;8.25;5.90;;;;;;;21.95;57.34;99885.25;12219432;19;20034;-81
2023/05/20 09:11:33;;;;;;;9.88;5.88;;;;;;;21.68;56.39;99889.91;12221420;19;20010;-81
2023/05/20 09:15:36;;;;;;;9.00;6.25;;;;;;;21.53;57.91;99873.50;12217225;19;20035;-81
2023/05/20 09:19:38;;;;;;;8.07;6.47;;;;;;;21.51;57.31;99873.03;12195861;19;20018;-79
2023/05/20 09:23:46;;;;;;;7.78;5.82;;;;;;;21.42;58.57;99869.31;12216545;19;20788;-81
2023/05/20 09:27:49;;;;;;;8.18;6.35;;;;;;;21.42;57.38;99869.31;12191128;19;20399;-79
2023/05/20 09:31:52;;;;;;;6.97;4.88;;;;;;;21.34;58.49;99868.09;12218836;19;20007;-83
2023/05/20 09:36:01;;;;;;;6.88;5.63;;;;;;;21.34;57.00;99871.72;12212088;19;20007;-81
2023/05/20 09:40:04;;;;;;;7.28;5.85;;;;;;;21.35;58.21;99853.75;12191719;19;20024;-81
2023/05/20 09:44:07;;;;;;;7.65;5.90;;;;;;;21.64;58.18;99869.28;12218851;19;20014;-80
2023/05/20 09:48:10;;;;;;;8.35;5.13;;;;;;;21.85;58.17;99863.94;12212463;19;20013;-80
2023/05/20 09:52:14;;;;;;;8.00;6.03;;;;;;;22.18;56.80;99855.16;12192435;19;20011;-79
2023/05/20 09:56:18;;;;;;;8.48;6.25;;;;;;;22.39;56.40;99869.41;12210913;19;20015;-80
2023/05/20 10:00:21;;;;;;;9.15;5.72;;;;;;;22.37;56.30;99866.09;12212622;19;20070;-81
2023/05/20 10:04:26;;;;;;;6.93;5.65;;;;;;;21.85;56.25;99855.53;12201376;19;20011;-79
2023/05/20 10:09:08;;;;;;;8.10;6.05;;;;;;;21.43;60.35;99866.22;12223354;19;20007;-79
2023/05/20 10:13:45;;;;;;;7.47;5.20;;;;;;;21.42;59.83;99853.34;12192752;19;20094;-78
2023/05/20 10:18:03;;;;;;;8.90;6.32;;;;;;;21.33;60.48;99849.66;12217358;19;20343;-79
2023/05/20 10:22:09;;;;;;;6.93;5.72;;;;;;;21.42;58.78;99835.69;12195422;19;20488;-79
2023/05/20 10:26:12;;;;;;;7.90;6.13;;;;;;;21.30;61.58;99845.50;12208480;19;20483;-79
2023/05/20 10:30:21;;;;;;;8.30;6.07;;;;;;;21.16;60.13;99833.53;12212389;19;20029;-80
2023/05/20 10:34:24;;;;;;;9.02;6.60;;;;;;;21.74;59.72;99840.13;12190320;19;20007;-78
2023/05/20 10:38:26;;;;;;;9.47;6.13;;;;;;;21.85;58.14;99833.09;12207649;19;20010;-78
2023/05/20 10:42:29;;;;;;;10.10;6.30;;;;;;;21.90;59.11;99832.13;12211642;19;20286;-80
2023/05/20 10:46:32;;;;;;;7.65;5.97;;;;;;;22.13;58.01;99830.03;12188040;19;20542;-78
2023/05/20 10:50:58;;;;;;;7.50;6.43;;;;;;;22.02;58.05;99823.91;12213370;19;20011;-80
2023/05/20 10:55:03;;;;;;;11.32;8.57;;;;;;;21.96;57.34;99823.22;12206084;19;20032;-79
2023/05/20 10:59:07;;;;;;;9.63;6.57;;;;;;;22.04;57.94;99824.38;12223430;19;20014;-79
2023/05/20 11:03:13;;;;;;;10.57;7.28;;;;;;;22.17;57.53;99820.66;12226251;19;20017;-82
2023/05/20 11:07:29;;;;;;;9.50;6.78;;;;;;;23.29;53.56;99816.22;12199026;19;20472;-80
2023/05/20 11:11:31;;;;;;;8.45;6.55;;;;;;;23.52;52.95;99813.13;12209525;19;20479;-79
2023/05/20 11:15:34;;;;;;;11.60;7.00;;;;;;;23.17;50.73;99796.38;12215141;19;20010;-78
2023/05/20 11:19:37;;;;;;;8.38;6.63;;;;;;;23.25;53.17;99794.72;12195706;19;20504;-82
2023/05/20 11:23:39;;;;;;;7.45;6.10;;;;;;;23.96;51.66;99788.47;12209528;19;20014;-80
2023/05/20 11:27:42;;;;;;;9.43;6.80;;;;;;;24.59;48.80;99785.72;12184043;19;20023;-81
2023/05/20 11:31:51;;;;;;;9.98;7.35;;;;;;;24.54;47.61;99778.34;12205312;19;20006;-81
2023/05/20 11:35:53;;;;;;;8.82;6.45;;;;;;;24.86;47.98;99781.50;12205354;19;20127;-80
2023/05/20 11:40:08;;;;;;;10.38;7.07;;;;;;;25.12;47.27;99786.88;12186111;19;20023;-82
2023/05/20 11:44:12;;;;;;;8.35;7.00;;;;;;;24.96;45.26;99781.91;12206333;19;20467;-79
2023/05/20 11:48:14;;;;;;;8.95;6.70;;;;;;;24.75;45.84;99772.69;12213050;19;20337;-79
2023/05/20 11:52:16;;;;;;;9.55;7.07;;;;;;;24.78;46.19;99777.63;12192872;19;20090;-81
2023/05/20 11:56:20;;;;;;;9.45;6.97;;;;;;;24.78;45.45;99777.63;12216248;19;20006;-79
2023/05/20 12:00:23;;;;;;;12.20;7.05;;;;;;;24.62;45.44;99765.31;12191475;19;20007;-83
2023/05/20 12:04:27;;;;;;;11.35;6.50;;;;;;;24.24;46.16;99760.63;12180864;19;20029;-83
2023/05/20 12:08:29;;;;;;;12.13;6.30;;;;;;;24.75;46.83;99778.31;12221258;19;20027;-81
2023/05/20 12:12:32;;;;;;;11.75;7.45;;;;;;;25.17;44.16;99761.31;12239230;19;20032;-79
2023/05/20 12:16:35;;;;;;;8.32;6.80;;;;;;;25.87;42.46;99773.38;12216894;19;20025;-80
2023/05/20 12:20:37;;;;;;;8.38;7.05;;;;;;;25.97;42.49;99762.78;12189760;19;20018;-79
2023/05/20 12:24:40;;;;;;;8.65;6.50;;;;;;;26.65;43.06;99765.72;12203019;19;20029;-81
2023/05/20 12:28:42;;;;;;;;;;;;;;;27.53;40.70;99750.75;12182617;19;20030;-82
2023/05/20 12:32:45;;;;;;;9.57;6.82;;;;;;;27.27;39.41;99750.09;12209687;19;19922;-81
2023/05/20 12:36:47;;;;;;;10.15;6.40;;;;;;;27.00;40.15;99742.47;12163498;19;20485;-80
2023/05/20 12:40:49;;;;;;;8.00;6.32;;;;;;;27.80;39.52;99732.06;12229250;19;20010;-79
2023/05/20 12:44:54;;;;;;;7.38;6.55;;;;;;;29.34;37.63;99727.63;12236343;19;20010;-81
2023/05/20 12:48:57;;;;;;;8.23;6.68;;;;;;;29.53;36.52;99733.19;12214461;19;20014;-82
2023/05/20 12:52:58;;;;;;;9.18;7.07;;;;;;;28.03;37.94;99733.00;12225259;19;20074;-81
2023/05/20 12:57:01;;;;;;;;;;;;;;;26.55;40.42;99738.78;12183966;19;20034;-79
2023/05/20 13:01:03;;;;;;;9.10;6.55;;;;;;;27.45;39.68;99729.94;12199482;19;19926;-81
2023/05/20 13:05:06;;;;;;;8.68;6.13;;;;;;;29.06;36.78;99731.59;12227398;19;20006;-80
2023/05/20 13:09:08;;;;;;;7.93;7.13;;;;;;;30.62;33.80;99745.00;12223529;19;20034;-79
2023/05/20 13:13:11;;;;;;;8.63;7.22;;;;;;;30.65;33.90;99732.84;12201108;19;20028;-78
2023/05/20 13:17:13;;;;;;;7.90;7.07;;;;;;;30.16;35.19;99728.94;12185942;19;20010;-78
2023/05/20 13:21:15;;;;;;;;;;;;;;;30.66;35.64;99731.66;12211875;19;20565;-77
2023/05/20 13:25:17;;;;;;;10.23;7.78;;;;;;;29.92;34.62;99724.50;12218673;19;19946;-78
2023/05/20 13:29:19;;;;;;;;;;;;;;;28.29;36.74;99731.53;12199930;19;20011;-78
2023/05/20 13:33:22;;;;;;;8.93;7.38;;;;;;;27.19;38.86;99728.50;12219183;19;20478;-78
2023/05/20 13:37:24;;;;;;;10.75;7.28;;;;;;;26.86;39.63;99725.09;12214732;19;20013;-79
2023/05/20 13:41:26;;;;;;;;;;;;;;;26.19;40.65;99713.47;12195670;19;20086;-79
2023/05/20 13:45:30;;;;;;;11.30;8.07;;;;;;;26.20;41.21;99712.28;12217898;19;19922;-79
2023/05/20 13:49:31;;;;;;;8.48;6.93;;;;;;;26.32;40.77;99723.53;12218711;19;20387;-80
2023/05/20 13:53:34;;;;;;;10.23;7.70;;;;;;;25.55;42.72;99703.75;12197201;19;20085;-79
2023/05/20 13:57:37;;;;;;;14.20;9.15;;;;;;;25.04;44.85;99695.59;12216791;19;20010;-79
2023/05/20 14:01:43;;;;;;;9.57;7.88;;;;;;;25.67;43.14;99692.47;12221085;19;20010;-79
2023/05/20 14:05:46;;;;;;;10.25;7.50;;;;;;;27.15;41.10;99684.31;12195148;19;20065;-80
2023/05/20 14:09:47;;;;;;;9.45;7.45;;;;;;;29.43;38.15;99687.63;12218986;19;20006;-80
2023/05/20 14:13:49;;;;;;;10.43;8.15;;;;;;;29.87;36.16;99679.41;12219822;19;20454;-81
2023/05/20 14:17:51;;;;;;;11.68;8.15;;;;;;;28.28;37.65;99676.06;12200751;19;20014;-80
2023/05/20 14:21:53;;;;;;;16.95;8.23;;;;;;;28.48;37.44;99669.25;12218152;19;20026;-81
2023/05/20 14:25:55;;;;;;;9.70;7.93;;;;;;;28.50;37.62;99671.72;12221471;19;20011;-80
2023/05/20 14:29:57;;;;;;;;;;;;;;;28.36;37.67;99672.19;12199113;19;20020;-80
2023/05/20 14:33:59;;;;;;;9.13;7.85;;;;;;;28.29;37.67;99666.38;12230692;19;19921;-78
2023/05/20 14:38:02;;;;;;;8.88;7.97;;;;;;;28.75;36.98;99664.50;12210455;19;20013;-78
2023/05/20 14:42:04;;;;;;;9.93;8.35;;;;;;;28.05;38.22;99659.81;12189315;19;20006;-78
2023/05/20 14:46:07;;;;;;;11.88;8.85;;;;;;;27.56;39.05;99653.81;12213715;19;20387;-79
2023/05/20 14:50:09;;;;;;;9.65;7.72;;;;;;;27.25;39.40;99650.66;12191432;19;20015;-78
2023/05/20 14:54:12;;;;;;;9.73;7.97;;;;;;;26.70;40.98;99643.94;12221533;19;20497;-80
2023/05/20 14:58:14;;;;;;;10.65;8.32;;;;;;;26.54;41.18;99645.91;12210738;19;20011;-78
2023/05/20 15:02:18;;;;;;;12.05;8.80;;;;;;;26.56;41.27;99655.69;12197055;19;20042;-79
2023/05/20 15:06:21;;;;;;;11.63;8.57;;;;;;;26.52;41.06;99649.09;12219892;19;20042;-79
2023/05/20 15:10:26;;;;;;;12.02;8.50;;;;;;;27.19;39.92;99640.81;12217639;19;20011;-80
2023/05/20 15:14:29;;;;;;;10.88;8.82;;;;;;;28.17;37.96;99645.50;12198013;19;20378;-79
2023/05/20 15:18:35;;;;;;;13.45;8.68;;;;;;;27.42;39.57;99635.28;12210087;19;20006;-81
2023/05/20 15:22:37;;;;;;;10.85;9.02;;;;;;;26.54;40.71;99626.16;12217344;19;20014;-82
2023/05/20 15:26:39;;;;;;;12.02;9.00;;;;;;;25.41;43.81;99620.31;12191042;19;20029;-78
2023/05/20 15:30:41;;;;;;;12.45;8.90;;;;;;;25.05;45.13;99623.13;12214380;19;20015;-78
2023/05/20 15:34:43;;;;;;;12.35;9.13;;;;;;;24.87;46.04;99617.72;12210357;19;20475;-77
2023/05/20 15:38:45;;;;;;;11.40;9.20;;;;;;;24.47;46.78;99632.41;12190076;19;20072;-81
2023/05/20 15:42:47;;;;;;;12.20;8.93;;;;;;;24.22;47.66;99641.91;12214640;19;20017;-78
2023/05/20 15:46:49;;;;;;;11.73;8.85;;;;;;;24.01;48.73;99641.94;12218129;19;20021;-79
2023/05/20 15:50:52;;;;;;;14.43;9.25;;;;;;;24.06;48.18;99645.38;12199724;19;20011;-81
2023/05/20 15:54:55;;;;;;;14.23;9.80;;;;;;;23.71;49.53;99646.78;12219950;19;20441;-78
2023/05/20 15:58:57;;;;;;;11.68;8.88;;;;;;;23.40;50.46;99650.75;12224728;19;20014;-79
2023/05/20 16:02:58;;;;;;;11.50;9.43;;;;;;;23.22;51.07;99640.78;12203216;19;20023;-79
2023/05/20 16:07:02;;;;;;;12.57;9.60;;;;;;;23.35;51.83;99640.53;12222309;19;20255;-79
2023/05/20 16:11:05;;;;;;;12.18;10.00;;;;;;;23.45;51.58;99644.13;12225918;19;20066;-78
2023/05/20 16:15:08;;;;;;;12.63;9.60;;;;;;;23.24;51.44;99641.28;12202978;19;20356;-78
2023/05/20 16:19:10;;;;;;;12.95;9.95;;;;;;;23.10;52.79;99635.88;12223877;19;20035;-77
2023/05/20 16:23:12;;;;;;;14.02;8.98;;;;;;;22.81;55.48;99631.00;12203709;19;20011;-78
2023/05/20 16:27:14;;;;;;;14.87;9.67;;;;;;;22.60;55.19;99633.72;12221333;19;20090;-77
2023/05/20 16:31:16;;;;;;;11.13;8.90;;;;;;;22.55;55.35;99633.88;12224589;19;20015;-78
2023/05/20 16:35:18;;;;;;;12.73;9.27;;;;;;;22.38;56.13;99634.75;12209232;19;20006;-81
2023/05/20 16:39:20;;;;;;;13.38;10.05;;;;;;;22.15;56.34;99640.53;12229079;19;20014;-80
2023/05/20 16:43:22;;;;;;;13.17;9.47;;;;;;;21.86;58.01;99635.56;12230890;19;20006;-80
2023/05/20 16:47:23;;;;;;;14.00;9.73;;;;;;;21.62;58.68;99650.06;12216172;19;20011;-79
2023/05/20 16:51:27;;;;;;;13.18;10.05;;;;;;;21.37;59.57;99641.28;12227699;19;20499;-80
2023/05/20 16:55:29;;;;;;;12.80;9.30;;;;;;;21.27;60.11;99640.75;12231141;19;20090;-79
2023/05/20 16:59:31;;;;;;;12.05;9.95;;;;;;;21.15;60.49;99638.56;12205929;19;20074;-80
2023/05/20 17:03:34;;;;;;;14.60;10.20;;;;;;;21.10;61.53;99652.72;12215297;19;20010;-79
2023/05/20 17:07:37;;;;;;;12.30;9.40;;;;;;;21.03;62.12;99655.16;12221858;19;20375;-80
2023/05/20 17:11:38;;;;;;;16.83;9.55;;;;;;;20.91;62.60;99653.81;12210479;19;20010;-79
2023/05/20 17:15:40;;;;;;;11.77;9.13;;;;;;;20.75;63.41;99658.16;12222107;19;20099;-80
2023/05/20 17:19:42;;;;;;;11.80;9.60;;;;;;;20.68;63.74;99658.63;12222045;19;20502;-79
2023/05/20 17:23:44;;;;;;;13.90;9.43;;;;;;;20.65;63.71;99661.25;12199595;19;20014;-79
2023/05/20 17:27:46;;;;;;;14.30;10.65;;;;;;;20.72;63.88;99664.41;12225095;19;20015;-79
2023/05/20 17:31:48;;;;;;;14.52;10.55;;;;;;;20.60;66.08;99669.78;12227572;19;20752;-78
2023/05/20 17:35:50;;;;;;;12.50;9.40;;;;;;;20.56;66.35;99668.75;12201930;19;20010;-79
2023/05/20 17:39:52;;;;;;;14.67;10.57;;;;;;;20.53;66.26;99663.81;12220295;19;20014;-79
2023/05/20 17:43:55;;;;;;;14.45;10.38;;;;;;;20.40;67.41;99666.31;12236286;19;20272;-78
2023/05/20 17:47:58;;;;;;;13.40;10.63;;;;;;;20.29;67.86;99664.94;12210178;19;20019;-79
2023/05/20 17:52:00;;;;;;;;;;;;;;;20.13;68.17;99667.25;12228129;19;20035;-79
2023/05/20 17:56:02;;;;;;;15.40;10.73;;;;;;;20.06;68.81;99669.69;12229434;19;19915;-79
2023/05/20 18:00:05;;;;;;;21.15;10.93;;;;;;;19.88;72.76;99663.13;12208858;19;20710;-80
2023/05/20 18:04:09;;;;;;;16.50;11.10;;;;;;;19.76;71.70;99662.84;12229166;19;20103;-79
2023/05/20 18:08:11;;;;;;;18.75;11.02;;;;;;;19.70;72.62;99664.94;12203682;19;20117;-79
2023/05/20 18:12:12;;;;;;;15.13;10.70;;;;;;;19.54;74.20;99664.41;12228210;19;20007;-78
2023/05/20 18:16:14;;;;;;;17.07;11.57;;;;;;;19.37;74.56;99666.19;12227160;19;20018;-79
2023/05/20 18:20:16;;;;;;;14.07;10.87;;;;;;;19.31;74.41;99668.28;12203770;19;20011;-79
2023/05/20 18:24:19;;;;;;;14.82;11.32;;;;;;;19.20;75.97;99666.81;12230184;19;20030;-78
2023/05/20 18:28:21;;;;;;;15.85;11.10;;;;;;;19.03;77.33;99673.00;12227097;19;20018;-78
2023/05/20 18:32:27;;;;;;;15.77;11.63;;;;;;;18.96;77.38;99667.03;12206887;19;20014;-79
2023/05/20 18:36:30;;;;;;;16.00;11.20;;;;;;;18.81;80.48;99682.94;12224968;19;20007;-80
2023/05/20 18:40:32;;;;;;;16.27;12.52;;;;;;;18.71;80.56;99671.09;12221920;19;20009;-80
2023/05/20 18:44:34;;;;;;;17.48;12.18;;;;;;;18.61;80.84;99675.72;12203602;19;20089;-79
2023/05/20 18:48:36;;;;;;;16.98;12.80;;;;;;;18.48;81.96;99675.69;12225557;19;20003;-80